createdAt,value
2016-11-19T00:00:29.343Z,82.78
2016-11-19T00:01:10.373Z,82.97
2016-11-19T00:01:51.912Z,83.45
2016-11-19T00:02:33.020Z,82.69
2016-11-19T00:03:14.410Z,82.88
2016-11-19T00:03:55.463Z,83.36
2016-11-19T00:04:36.170Z,82.69
2016-11-19T00:05:17.453Z,82.78
2016-11-19T00:05:58.443Z,82.78
2016-11-19T00:06:39.426Z,82.5
2016-11-19T00:07:20.424Z,82.88
2016-11-19T00:08:01.673Z,82.78
2016-11-19T00:08:42.614Z,82.5
2016-11-19T00:09:23.564Z,83.07
2016-11-19T00:10:04.792Z,83.07
2016-11-19T00:10:45.813Z,82.78
2016-11-19T00:11:26.791Z,83.07
2016-11-19T00:12:07.730Z,83.54
2016-11-19T00:12:48.828Z,84.11
2016-11-19T00:13:30.283Z,83.73
2016-11-19T00:14:11.262Z,83.64
2016-11-19T00:14:52.609Z,84.68
2016-11-19T00:15:33.884Z,85.49
2016-11-19T00:16:14.856Z,85.11
2016-11-19T00:16:56.127Z,84.97
2016-11-19T00:17:37.391Z,83.54
2016-11-19T00:18:18.627Z,84.11
2016-11-19T00:18:59.654Z,84.4
2016-11-19T00:19:40.982Z,83.83
2016-11-19T00:20:22.035Z,84.3
2016-11-19T00:21:03.144Z,84.3
2016-11-19T00:21:44.375Z,85.49
2016-11-19T00:22:25.550Z,85.59
2016-11-19T00:23:06.575Z,85.59
2016-11-19T00:23:47.535Z,85.53
2016-11-19T00:24:28.533Z,85.21
2016-11-19T00:25:09.797Z,85.02
2016-11-19T00:25:51.577Z,85.49
2016-11-19T00:26:32.695Z,85.49
2016-11-19T00:27:13.880Z,85.87
2016-11-19T00:27:54.712Z,85.87
2016-11-19T00:28:38.245Z,86.54
2016-11-19T00:29:19.281Z,85.97
2016-11-19T00:30:00.545Z,86.54
2016-11-19T00:30:41.694Z,86.44
2016-11-19T00:31:23.096Z,87.2
2016-11-19T00:32:05.436Z,87.3
2016-11-19T00:32:49.161Z,86.16
2016-11-19T00:33:40.598Z,86.72
2016-11-19T00:34:21.634Z,87.01
2016-11-19T00:35:02.746Z,87.11
2016-11-19T00:35:44.641Z,86.16
2016-11-19T00:36:25.548Z,86.54
2016-11-19T00:37:07.483Z,86.35
2016-11-19T00:37:48.316Z,86.25
2016-11-19T00:38:29.082Z,86.63
2016-11-19T00:39:09.955Z,87.3
2016-11-19T00:39:51.018Z,86.54
2016-11-19T00:40:32.048Z,87.2
2016-11-19T00:41:13.210Z,86.91
2016-11-19T00:41:54.081Z,87.01
2016-11-19T00:42:34.912Z,86.91
2016-11-19T00:43:15.748Z,87.2
2016-11-19T00:43:56.599Z,87.11
2016-11-19T00:44:37.884Z,87.2
2016-11-19T00:45:18.888Z,86.91
2016-11-19T00:46:00.003Z,87.39
2016-11-19T00:46:43.693Z,87.11
2016-11-19T00:47:32.412Z,87.01
2016-11-19T00:48:16.418Z,87.2
2016-11-19T00:48:58.847Z,87.2
2016-11-19T00:51:01.885Z,87.01
2016-11-19T00:51:42.863Z,87.3
2016-11-19T00:52:26.837Z,88.06
2016-11-19T00:53:11.638Z,87.87
2016-11-19T00:53:53.680Z,88.15
2016-11-19T00:54:34.013Z,88.15
2016-11-19T00:55:15.255Z,88.34
2016-11-19T00:55:56.305Z,88.24
2016-11-19T00:56:37.128Z,87.58
2016-11-19T00:57:18.340Z,87.87
2016-11-19T00:57:59.164Z,87.87
2016-11-19T00:58:40.244Z,88.24
2016-11-19T00:59:21.260Z,87.58
2016-11-19T01:00:03.335Z,88.06
2016-11-19T01:02:22.483Z,87.96
2016-11-19T01:03:05.302Z,88.24
2016-11-19T01:03:47.189Z,88.24
2016-11-19T01:04:28.754Z,87.58
2016-11-19T01:05:10.651Z,87.11
2016-11-19T01:05:52.428Z,87.3
2016-11-19T01:06:33.377Z,86.91
2016-11-19T01:07:14.482Z,87.01
2016-11-19T01:07:55.634Z,87.01
2016-11-19T01:08:37.457Z,86.16
2016-11-19T01:09:18.995Z,85.49
2016-11-19T01:10:00.120Z,86.63
2016-11-19T01:10:42.103Z,86.35
2016-11-19T01:11:23.769Z,86.54
2016-11-19T01:12:04.862Z,86.07
2016-11-19T01:12:45.777Z,86.25
2016-11-19T01:13:26.866Z,85.49
2016-11-19T01:14:07.939Z,86.16
2016-11-19T01:14:49.571Z,87.2
2016-11-19T01:15:31.730Z,86.07
2016-11-19T01:16:12.875Z,87.01
2016-11-19T01:16:54.450Z,86.44
2016-11-19T01:17:36.243Z,85.78
2016-11-19T01:18:18.231Z,86.07
2016-11-19T01:18:59.314Z,86.44
2016-11-19T01:19:41.330Z,85.78
2016-11-19T01:20:22.298Z,85.59
2016-11-19T01:21:03.100Z,85.68
2016-11-19T01:21:43.998Z,85.49
2016-11-19T01:22:25.201Z,85.87
2016-11-19T01:23:06.185Z,84.92
2016-11-19T01:23:47.213Z,85.02
2016-11-19T01:24:28.361Z,85.21
2016-11-19T01:26:21.354Z,85.59
2016-11-19T01:28:14.663Z,85.25
2016-11-19T01:28:55.532Z,84.59
2016-11-19T01:29:36.414Z,84.49
2016-11-19T01:30:17.327Z,85.25
2016-11-19T01:30:58.188Z,85.25
2016-11-19T01:31:39.142Z,84.78
2016-11-19T01:32:19.904Z,84.97
2016-11-19T01:33:00.928Z,85.25
2016-11-19T01:33:41.661Z,84.97
2016-11-19T01:34:22.375Z,85.91
2016-11-19T01:35:03.106Z,84.97
2016-11-19T01:35:44.007Z,85.16
2016-11-19T01:36:24.739Z,85.16
2016-11-19T01:37:06.068Z,84.78
2016-11-19T01:37:46.964Z,84.4
2016-11-19T01:38:27.966Z,85.53
2016-11-19T01:39:09.295Z,85.53
2016-11-19T01:39:50.176Z,85.25
2016-11-19T01:40:31.230Z,85.63
2016-11-19T01:41:12.317Z,85.91
2016-11-19T01:41:53.314Z,85.16
2016-11-19T01:42:34.339Z,85.35
2016-11-19T01:43:15.372Z,85.44
2016-11-19T01:43:59.014Z,85.25
2016-11-19T01:44:40.760Z,85.35
2016-11-19T01:45:21.385Z,85.16
2016-11-19T01:46:03.901Z,85.35
2016-11-19T01:46:44.702Z,84.97
2016-11-19T01:47:25.680Z,85.25
2016-11-19T01:48:06.555Z,84.97
2016-11-19T01:48:47.426Z,84.68
2016-11-19T01:49:28.190Z,84.59
2016-11-19T01:50:09.034Z,83.54
2016-11-19T01:50:50.198Z,84.59
2016-11-19T01:51:31.246Z,85.16
2016-11-19T01:52:12.180Z,84.78
2016-11-19T01:52:53.074Z,84.3
2016-11-19T01:53:33.988Z,84.68
2016-11-19T01:54:14.965Z,84.01
2016-11-19T01:54:55.809Z,84.21
2016-11-19T01:55:36.651Z,84.49
2016-11-19T01:56:18.533Z,84.59
2016-11-19T01:56:59.448Z,84.49
2016-11-19T01:57:40.403Z,84.21
2016-11-19T01:58:21.304Z,84.01
2016-11-19T01:59:02.400Z,83.54
2016-11-19T01:59:43.474Z,84.4
2016-11-19T02:00:25.688Z,84.4
2016-11-19T02:01:06.034Z,84.87
2016-11-19T02:01:47.089Z,84.11
2016-11-19T02:02:28.127Z,85.06
2016-11-19T02:03:10.643Z,85.25
2016-11-19T02:03:51.889Z,85.35
2016-11-19T02:04:33.183Z,85.44
2016-11-19T02:05:14.132Z,84.97
2016-11-19T02:05:55.784Z,85.63
2016-11-19T02:06:36.771Z,85.06
2016-11-19T02:07:17.943Z,85.53
2016-11-19T02:07:59.125Z,85.16
2016-11-19T02:08:40.487Z,85.35
2016-11-19T02:09:21.099Z,84.97
2016-11-19T02:10:02.089Z,84.49
2016-11-19T02:10:43.364Z,84.4
2016-11-19T02:11:24.483Z,84.68
2016-11-19T02:12:05.272Z,85.53
2016-11-19T02:12:46.030Z,85.63
2016-11-19T02:13:26.895Z,84.78
2016-11-19T02:14:07.750Z,85.16
2016-11-19T02:14:48.893Z,84.97
2016-11-19T02:15:29.755Z,85.53
2016-11-19T02:16:10.674Z,85.53
2016-11-19T02:16:51.433Z,86.11
2016-11-19T02:17:32.245Z,86.2
2016-11-19T02:18:13.009Z,85.4
2016-11-19T02:18:53.828Z,85.72
2016-11-19T02:19:34.600Z,84.59
2016-11-19T02:20:15.381Z,85.53
2016-11-19T02:20:56.134Z,86.25
2016-11-19T02:21:36.853Z,85.59
2016-11-19T02:22:17.707Z,85.3
2016-11-19T02:22:58.473Z,85.59
2016-11-19T02:23:39.301Z,86.07
2016-11-19T02:24:20.688Z,86.16
2016-11-19T02:25:01.945Z,85.78
2016-11-19T02:25:42.963Z,85.68
2016-11-19T02:26:24.097Z,86.16
2016-11-19T02:27:05.346Z,86.44
2016-11-19T02:27:46.032Z,87.2
2016-11-19T02:28:26.942Z,86.35
2016-11-19T02:29:07.941Z,86.44
2016-11-19T02:29:48.671Z,86.16
2016-11-19T02:30:29.629Z,86.63
2016-11-19T02:31:10.424Z,86.91
2016-11-19T02:31:51.248Z,87.01
2016-11-19T02:32:32.172Z,86.63
2016-11-19T02:33:13.229Z,86.35
2016-11-19T02:33:54.524Z,86.54
2016-11-19T02:34:36.390Z,87.11
2016-11-19T02:35:17.324Z,87.3
2016-11-19T02:35:58.217Z,87.2
2016-11-19T02:36:40.100Z,86.91
2016-11-19T02:37:20.921Z,87.2
2016-11-19T02:38:01.777Z,86.44
2016-11-19T02:38:43.512Z,86.54
2016-11-19T02:39:24.653Z,87.2
2016-11-19T02:40:05.498Z,87.01
2016-11-19T02:40:46.431Z,86.25
2016-11-19T02:41:27.487Z,85.87
2016-11-19T02:42:08.443Z,85.49
2016-11-19T02:42:49.560Z,86.25
2016-11-19T02:43:30.503Z,86.54
2016-11-19T02:44:11.449Z,86.25
2016-11-19T02:44:53.324Z,86.72
2016-11-19T02:45:34.175Z,86.82
2016-11-19T02:46:15.066Z,86.16
2016-11-19T02:46:55.979Z,86.63
2016-11-19T02:47:36.769Z,87.58
2016-11-19T02:48:17.768Z,87.3
2016-11-19T02:49:00.188Z,87.68
2016-11-19T02:49:41.066Z,88.06
2016-11-19T02:50:22.211Z,87.68
2016-11-19T02:51:04.388Z,87.49
2016-11-19T02:51:45.313Z,87.77
2016-11-19T02:52:26.039Z,87.49
2016-11-19T02:53:06.950Z,87.87
2016-11-19T02:53:47.952Z,87.3
2016-11-19T02:54:28.867Z,87.01
2016-11-19T02:55:10.898Z,87.11
2016-11-19T02:55:51.791Z,87.68
2016-11-19T02:56:32.734Z,87.2
2016-11-19T02:57:15.294Z,87.58
2016-11-19T02:57:56.388Z,87.39
2016-11-19T02:58:37.305Z,87.39
2016-11-19T02:59:18.318Z,86.82
2016-11-19T02:59:59.115Z,87.01
2016-11-19T03:00:40.143Z,87.2
2016-11-19T03:01:20.941Z,87.3
2016-11-19T03:02:01.965Z,86.91
2016-11-19T03:02:43.988Z,87.01
2016-11-19T03:03:25.144Z,87.39
2016-11-19T03:04:06.073Z,87.39
2016-11-19T03:04:46.904Z,87.2
2016-11-19T03:05:27.964Z,86.91
2016-11-19T03:06:08.972Z,87.2
2016-11-19T03:06:50.841Z,87.11
2016-11-19T03:07:31.622Z,86.72
2016-11-19T03:08:12.796Z,87.11
2016-11-19T03:08:54.460Z,87.96
2016-11-19T03:09:35.272Z,88.06
2016-11-19T03:10:16.293Z,88.24
2016-11-19T03:10:57.970Z,88.24
2016-11-19T03:11:38.888Z,88.06
2016-11-19T03:12:20.025Z,87.77
2016-11-19T03:13:00.882Z,87.87
2016-11-19T03:13:41.806Z,87.87
2016-11-19T03:14:22.702Z,88.15
2016-11-19T03:15:03.692Z,87.58
2016-11-19T03:15:44.588Z,87.49
2016-11-19T03:16:25.238Z,87.39
2016-11-19T03:17:06.122Z,87.49
2016-11-19T03:17:46.849Z,87.58
2016-11-19T03:18:27.865Z,87.87
2016-11-19T03:19:08.763Z,87.2
2016-11-19T03:19:49.845Z,88.34
2016-11-19T03:20:31.081Z,88.24
2016-11-19T03:21:11.905Z,87.77
2016-11-19T03:21:52.580Z,87.58
2016-11-19T03:22:33.350Z,87.2
2016-11-19T03:23:14.283Z,87.96
2016-11-19T03:23:55.323Z,87.68
2016-11-19T03:24:36.353Z,88.24
2016-11-19T03:25:17.170Z,87.96
2016-11-19T03:25:57.973Z,88.15
2016-11-19T03:26:38.852Z,87.77
2016-11-19T03:27:19.564Z,87.58
2016-11-19T03:28:00.694Z,88.62
2016-11-19T03:28:42.235Z,88.06
2016-11-19T03:29:23.341Z,88.24
2016-11-19T03:30:04.441Z,88.24
2016-11-19T03:30:45.465Z,88.24
2016-11-19T03:31:26.359Z,87.49
2016-11-19T03:32:07.216Z,87.68
2016-11-19T03:32:48.111Z,88.06
2016-11-19T03:33:29.077Z,87.68
2016-11-19T03:34:09.967Z,87.49
2016-11-19T03:34:50.937Z,88.06
2016-11-19T03:35:31.965Z,88.24
2016-11-19T03:36:13.002Z,88.15
2016-11-19T03:36:54.068Z,88.53
2016-11-19T03:37:34.970Z,89.1
2016-11-19T03:38:15.865Z,88.53
2016-11-19T03:38:56.723Z,88.62
2016-11-19T03:39:37.521Z,88.77
2016-11-19T03:40:18.309Z,89.2
2016-11-19T03:40:59.419Z,89.2
2016-11-19T03:41:40.358Z,88.48
2016-11-19T03:42:21.920Z,88.77
2016-11-19T03:43:02.761Z,88.53
2016-11-19T03:43:43.583Z,88.72
2016-11-19T03:44:24.372Z,88.34
2016-11-19T03:45:05.301Z,88.58
2016-11-19T03:45:46.426Z,89.06
2016-11-19T03:46:30.138Z,88.87
2016-11-19T03:47:14.484Z,88.34
2016-11-19T03:47:54.621Z,88.72
2016-11-19T03:48:37.035Z,88.62
2016-11-19T03:49:17.987Z,88.81
2016-11-19T03:49:58.957Z,88.72
2016-11-19T03:50:40.134Z,88.48
2016-11-19T03:51:21.645Z,88.87
2016-11-19T03:52:02.001Z,89.15
2016-11-19T03:52:43.045Z,88.87
2016-11-19T03:53:23.961Z,88.24
2016-11-19T03:54:04.910Z,88.68
2016-11-19T03:54:46.035Z,88.48
2016-11-19T03:55:27.093Z,88.77
2016-11-19T03:56:08.023Z,89.81
2016-11-19T03:56:48.977Z,89.25
2016-11-19T03:57:29.901Z,89.25
2016-11-19T03:58:11.446Z,88.68
2016-11-19T03:58:52.511Z,89.06
2016-11-19T03:59:33.601Z,89.25
2016-11-19T04:00:16.741Z,89.43
2016-11-19T04:00:59.237Z,89.72
2016-11-19T04:01:40.395Z,89.62
2016-11-19T04:02:22.354Z,89.72
2016-11-19T04:03:05.159Z,89.53
2016-11-19T04:03:46.451Z,89.34
2016-11-19T04:04:27.346Z,89.91
2016-11-19T04:05:08.159Z,89.15
2016-11-19T04:05:49.177Z,89.15
2016-11-19T04:06:30.097Z,89.43
2016-11-19T04:07:11.421Z,89
2016-11-19T04:07:52.362Z,89
2016-11-19T04:08:33.351Z,88.48
2016-11-19T04:09:14.495Z,88.77
2016-11-19T04:09:56.650Z,89.43
2016-11-19T04:10:45.130Z,89.72
2016-11-19T04:11:29.329Z,89.62
2016-11-19T04:12:13.462Z,89.43
2016-11-19T04:12:54.368Z,88.96
2016-11-19T04:13:35.316Z,88.77
2016-11-19T04:14:16.246Z,89.25
2016-11-19T04:14:59.505Z,89.15
2016-11-19T04:15:40.592Z,88.68
2016-11-19T04:16:21.462Z,88.68
2016-11-19T04:17:02.413Z,89.1
2016-11-19T04:17:43.804Z,88.58
2016-11-19T04:18:24.659Z,88.48
2016-11-19T04:19:05.534Z,88.77
2016-11-19T04:19:46.770Z,89.25
2016-11-19T04:20:27.735Z,89.43
2016-11-19T04:21:08.959Z,89.91
2016-11-19T04:21:50.024Z,89.25
2016-11-19T04:22:31.005Z,88.96
2016-11-19T04:23:13.140Z,89.15
2016-11-19T04:23:54.196Z,89.34
2016-11-19T04:24:35.149Z,89.72
2016-11-19T04:25:15.938Z,89.2
2016-11-19T04:25:56.769Z,89.34
2016-11-19T04:26:37.832Z,89.34
2016-11-19T04:27:19.067Z,88.87
2016-11-19T04:28:00.557Z,88.91
2016-11-19T04:28:41.540Z,89.06
2016-11-19T04:29:22.527Z,89.43
2016-11-19T04:30:03.235Z,89.43
2016-11-19T04:30:44.120Z,89.25
2016-11-19T04:31:25.089Z,88.68
2016-11-19T04:32:06.029Z,88.87
2016-11-19T04:32:46.968Z,89.25
2016-11-19T04:33:28.025Z,89.15
2016-11-19T04:34:08.823Z,88.77
2016-11-19T04:34:49.694Z,89.25
2016-11-19T04:35:30.600Z,89.25
2016-11-19T04:36:11.606Z,88.72
2016-11-19T04:36:52.366Z,89.1
2016-11-19T04:37:33.323Z,89.06
2016-11-19T04:38:14.802Z,88.87
2016-11-19T04:38:56.161Z,88.62
2016-11-19T04:39:37.154Z,88.58
2016-11-19T04:40:18.063Z,89.15
2016-11-19T04:40:59.093Z,89.91
2016-11-19T04:41:41.239Z,89.43
2016-11-19T04:42:22.281Z,89.72
2016-11-19T04:43:03.384Z,88.72
2016-11-19T04:43:44.391Z,88.62
2016-11-19T04:44:25.508Z,89.25
2016-11-19T04:45:06.674Z,89.29
2016-11-19T04:45:50.576Z,89.39
2016-11-19T04:46:31.493Z,88.81
2016-11-19T04:47:12.263Z,88.91
2016-11-19T04:47:53.123Z,88.72
2016-11-19T04:48:34.625Z,89
2016-11-19T04:49:15.506Z,88.91
2016-11-19T04:49:56.647Z,89.29
2016-11-19T04:50:37.466Z,88.81
2016-11-19T04:51:18.580Z,88.53
2016-11-19T04:52:00.151Z,88.81
2016-11-19T04:52:41.090Z,89.58
2016-11-19T04:53:22.095Z,89.58
2016-11-19T04:54:02.961Z,89.29
2016-11-19T04:54:43.882Z,89.29
2016-11-19T04:55:29.404Z,88.72
2016-11-19T04:56:12.365Z,88.43
2016-11-19T04:56:54.117Z,89
2016-11-19T04:57:34.991Z,88.62
2016-11-19T04:58:15.880Z,88.43
2016-11-19T04:58:56.958Z,88.91
2016-11-19T04:59:38.864Z,88.34
2016-11-19T05:00:19.669Z,88.34
2016-11-19T05:01:00.606Z,88.15
2016-11-19T05:01:41.551Z,87.49
2016-11-19T05:02:22.551Z,87.11
2016-11-19T05:03:03.682Z,87.2
2016-11-19T05:03:44.754Z,87.11
2016-11-19T05:04:25.496Z,87.3
2016-11-19T05:05:06.470Z,88.06
2016-11-19T05:05:47.229Z,87.58
2016-11-19T05:06:28.044Z,88.15
2016-11-19T05:07:08.807Z,88.24
2016-11-19T05:07:49.571Z,87.77
2016-11-19T05:08:30.531Z,88.24
2016-11-19T05:09:11.413Z,88.15
2016-11-19T05:09:52.314Z,88.34
2016-11-19T05:10:33.356Z,89
2016-11-19T05:11:14.294Z,88.24
2016-11-19T05:11:55.622Z,88.15
2016-11-19T05:12:37.224Z,88.15
2016-11-19T05:13:18.224Z,88.24
2016-11-19T05:13:59.064Z,88.24
2016-11-19T05:14:40.000Z,87.58
2016-11-19T05:15:20.956Z,88.43
2016-11-19T05:16:01.972Z,87.87
2016-11-19T05:16:42.837Z,88.15
2016-11-19T05:17:23.877Z,87.77
2016-11-19T05:18:04.724Z,87.68
2016-11-19T05:18:45.829Z,88.24
2016-11-19T05:19:26.945Z,87.96
2016-11-19T05:20:08.682Z,87.58
2016-11-19T05:20:48.690Z,87.77
2016-11-19T05:21:30.335Z,87.43
2016-11-19T05:22:15.265Z,87.24
2016-11-19T05:22:56.218Z,87.15
2016-11-19T05:23:37.180Z,87.43
2016-11-19T05:24:18.207Z,86.87
2016-11-19T05:24:59.233Z,86.87
2016-11-19T05:25:40.185Z,87.82
2016-11-19T05:26:21.053Z,87.68
2016-11-19T05:27:02.231Z,86.87
2016-11-19T05:27:43.649Z,86.77
2016-11-19T05:28:24.507Z,86.39
2016-11-19T05:29:05.388Z,86.39
2016-11-19T05:29:46.308Z,86.39
2016-11-19T05:30:27.198Z,85.35
2016-11-19T05:31:08.155Z,85.63
2016-11-19T05:31:48.953Z,86.11
2016-11-19T05:32:29.910Z,86.2
2016-11-19T05:33:10.724Z,86.49
2016-11-19T05:33:51.701Z,86.49
2016-11-19T05:34:32.522Z,87.24
2016-11-19T05:35:13.272Z,86.96
2016-11-19T05:35:54.192Z,87.24
2016-11-19T05:36:35.205Z,86.68
2016-11-19T05:37:16.306Z,86.2
2016-11-19T05:37:58.401Z,85.53
2016-11-19T05:38:41.448Z,85.91
2016-11-19T05:39:23.321Z,85.35
2016-11-19T05:40:04.101Z,85.53
2016-11-19T05:40:47.939Z,86.01
2016-11-19T05:41:28.959Z,85.53
2016-11-19T05:42:10.136Z,86.3
2016-11-19T05:42:50.787Z,85.72
2016-11-19T05:43:31.652Z,85.53
2016-11-19T05:44:12.536Z,85.72
2016-11-19T05:44:53.391Z,85.06
2016-11-19T05:45:35.103Z,85.91
2016-11-19T05:46:16.237Z,85.72
2016-11-19T05:46:57.985Z,85.16
2016-11-19T05:47:38.843Z,84.87
2016-11-19T05:48:19.653Z,85.25
2016-11-19T05:49:00.647Z,85.25
2016-11-19T05:49:43.362Z,85.63
2016-11-19T05:50:24.277Z,85.63
2016-11-19T05:51:06.237Z,85.53
2016-11-19T05:51:47.222Z,85.16
2016-11-19T05:52:29.133Z,85.63
2016-11-19T05:53:09.826Z,85.44
2016-11-19T05:53:50.999Z,85.44
2016-11-19T05:54:31.990Z,86.07
2016-11-19T05:55:12.999Z,85.91
2016-11-19T05:55:54.706Z,86.01
2016-11-19T05:56:36.604Z,86.25
2016-11-19T05:57:17.597Z,85.49
2016-11-19T05:57:58.443Z,85.4
2016-11-19T05:58:39.301Z,85.16
2016-11-19T05:59:20.223Z,85.21
2016-11-19T06:00:01.090Z,85.21
2016-11-19T06:00:41.885Z,85.59
2016-11-19T06:01:22.681Z,86.25
2016-11-19T06:02:03.512Z,86.2
2016-11-19T06:02:44.301Z,85.91
2016-11-19T06:03:25.117Z,85.91
2016-11-19T06:04:05.844Z,86.54
2016-11-19T06:04:46.773Z,86.39
2016-11-19T06:05:27.875Z,85.82
2016-11-19T06:06:09.863Z,85.25
2016-11-19T06:06:50.854Z,85.53
2016-11-19T06:07:34.132Z,85.72
2016-11-19T06:08:16.720Z,85.16
2016-11-19T06:08:57.564Z,85.63
2016-11-19T06:09:38.414Z,85.44
2016-11-19T06:10:19.422Z,86.01
2016-11-19T06:11:01.372Z,85.97
2016-11-19T06:11:42.216Z,86.25
2016-11-19T06:12:22.953Z,86.54
2016-11-19T06:13:03.793Z,86.11
2016-11-19T06:13:44.899Z,85.53
2016-11-19T06:14:25.906Z,85.53
2016-11-19T06:15:06.717Z,86.44
2016-11-19T06:15:47.562Z,86.11
2016-11-19T06:16:28.872Z,86.35
2016-11-19T06:17:10.659Z,86.35
2016-11-19T06:17:54.464Z,85.87
2016-11-19T06:18:35.225Z,87.3
2016-11-19T06:19:16.131Z,87.39
2016-11-19T06:19:57.165Z,87.11
2016-11-19T06:20:38.137Z,86.54
2016-11-19T06:21:18.914Z,86.54
2016-11-19T06:21:59.790Z,86.91
2016-11-19T06:22:40.579Z,87.01
2016-11-19T06:23:21.279Z,87.77
2016-11-19T06:24:02.348Z,87.68
2016-11-19T06:24:43.083Z,87.3
2016-11-19T06:25:24.175Z,86.54
2016-11-19T06:26:05.136Z,86.91
2016-11-19T06:26:45.944Z,86.72
2016-11-19T06:27:34.478Z,87.39
2016-11-19T06:28:16.339Z,86.82
2016-11-19T06:29:02.675Z,86.54
2016-11-19T06:29:44.494Z,86.82
2016-11-19T06:30:26.992Z,87.2
2016-11-19T06:31:08.008Z,87.3
2016-11-19T06:31:48.753Z,86.91
2016-11-19T06:32:29.458Z,86.16
2016-11-19T06:33:10.525Z,86.82
2016-11-19T06:33:51.399Z,87.39
2016-11-19T06:34:33.097Z,87.58
2016-11-19T06:35:13.989Z,88.24
2016-11-19T06:35:54.839Z,88.34
2016-11-19T06:36:35.768Z,88.43
2016-11-19T06:37:16.557Z,88.24
2016-11-19T06:37:57.471Z,88.34
2016-11-19T06:38:38.587Z,88.06
2016-11-19T06:39:19.511Z,87.87
2016-11-19T06:40:00.564Z,87.96
2016-11-19T06:40:41.770Z,87.2
2016-11-19T06:41:27.260Z,87.49
2016-11-19T06:42:11.840Z,88.53
2016-11-19T06:42:53.688Z,88.34
2016-11-19T06:43:36.455Z,88.24
2016-11-19T06:44:17.340Z,88.06
2016-11-19T06:44:59.125Z,88.24
2016-11-19T06:45:39.507Z,88.24
2016-11-19T06:46:20.467Z,88.24
2016-11-19T06:47:01.356Z,88.06
2016-11-19T06:47:42.193Z,87.39
2016-11-19T06:48:23.091Z,87.3
2016-11-19T06:49:04.383Z,86.91
2016-11-19T06:49:45.310Z,86.63
2016-11-19T06:50:26.276Z,87.2
2016-11-19T06:51:07.176Z,87.39
2016-11-19T06:51:53.275Z,87.68
2016-11-19T06:52:34.155Z,87.58
2016-11-19T06:53:15.019Z,87.87
2016-11-19T06:53:56.131Z,88.29
2016-11-19T06:54:38.437Z,88.06
2016-11-19T06:55:19.287Z,86.91
2016-11-19T06:56:00.460Z,87.15
2016-11-19T06:56:41.387Z,87.15
2016-11-19T06:57:22.375Z,87.72
2016-11-19T06:58:03.357Z,87.15
2016-11-19T06:58:44.527Z,86.68
2016-11-19T06:59:26.201Z,86.2
2016-11-19T07:00:07.093Z,86.39
2016-11-19T07:00:48.328Z,86.39
2016-11-19T07:01:29.103Z,86.11
2016-11-19T07:02:10.197Z,86.39
2016-11-19T07:02:51.853Z,86.39
2016-11-19T07:03:34.329Z,86.2
2016-11-19T07:04:15.250Z,85.72
2016-11-19T07:04:56.405Z,85.44
2016-11-19T07:05:37.120Z,85.91
2016-11-19T07:06:18.167Z,85.35
2016-11-19T07:06:59.000Z,85.16
2016-11-19T07:07:39.847Z,85.53
2016-11-19T07:08:21.135Z,86.58
2016-11-19T07:09:01.897Z,86.3
2016-11-19T07:09:42.815Z,86.39
2016-11-19T07:10:25.638Z,86.49
2016-11-19T07:11:06.388Z,86.11
2016-11-19T07:11:47.683Z,85.53
2016-11-19T07:12:28.474Z,85.72
2016-11-19T07:13:09.445Z,85.63
2016-11-19T07:13:50.395Z,84.49
2016-11-19T07:14:31.422Z,84.21
2016-11-19T07:15:12.421Z,84.68
2016-11-19T07:15:53.476Z,85.25
2016-11-19T07:16:34.422Z,85.25
2016-11-19T07:17:16.279Z,85.16
2016-11-19T07:17:57.303Z,85.44
2016-11-19T07:18:38.375Z,85.91
2016-11-19T07:19:19.305Z,85.44
2016-11-19T07:20:00.460Z,84.59
2016-11-19T07:20:41.311Z,85.35
2016-11-19T07:21:22.365Z,84.97
2016-11-19T07:22:03.194Z,85.25
2016-11-19T07:22:44.514Z,85.35
2016-11-19T07:23:25.424Z,84.97
2016-11-19T07:24:06.289Z,84.87
2016-11-19T07:24:47.449Z,85.25
2016-11-19T07:25:28.695Z,85.25
2016-11-19T07:26:09.665Z,84.87
2016-11-19T07:26:50.529Z,84.97
2016-11-19T07:27:31.307Z,84.87
2016-11-19T07:28:12.342Z,84.4
2016-11-19T07:28:53.386Z,84.21
2016-11-19T07:29:34.815Z,84.78
2016-11-19T07:30:15.937Z,84.59
2016-11-19T07:30:57.128Z,84.4
2016-11-19T07:31:38.309Z,84.11
2016-11-19T07:32:19.650Z,84.21
2016-11-19T07:33:00.853Z,84.97
2016-11-19T07:33:42.168Z,85.53
2016-11-19T07:34:23.066Z,84.97
2016-11-19T07:35:04.734Z,85.35
2016-11-19T07:35:45.730Z,85.72
2016-11-19T07:36:26.999Z,85.91
2016-11-19T07:37:08.770Z,85.72
2016-11-19T07:37:49.963Z,86.11
2016-11-19T07:38:31.079Z,86.11
2016-11-19T07:39:12.406Z,86.2
2016-11-19T07:39:53.527Z,85.72
2016-11-19T07:40:43.269Z,85.53
2016-11-19T07:41:25.176Z,85.82
2016-11-19T07:42:06.091Z,85.82
2016-11-19T07:42:47.076Z,85.82
2016-11-19T07:43:27.885Z,86.11
2016-11-19T07:44:08.732Z,85.63
2016-11-19T07:44:49.693Z,85.44
2016-11-19T07:45:30.409Z,85.35
2016-11-19T07:46:11.455Z,85.72
2016-11-19T07:46:52.184Z,85.16
2016-11-19T07:47:33.105Z,84.97
2016-11-19T07:48:14.295Z,85.16
2016-11-19T07:48:55.891Z,84.87
2016-11-19T07:49:36.877Z,85.63
2016-11-19T07:50:19.752Z,84.49
2016-11-19T07:51:00.768Z,84.3
2016-11-19T07:51:41.919Z,84.3
2016-11-19T07:52:23.549Z,84.11
2016-11-19T07:53:04.556Z,84.49
2016-11-19T07:53:45.786Z,84.78
2016-11-19T07:54:26.863Z,84.59
2016-11-19T07:55:07.878Z,83.83
2016-11-19T07:55:48.990Z,84.3
2016-11-19T07:56:30.757Z,83.64
2016-11-19T07:57:11.590Z,83.26
2016-11-19T07:57:52.728Z,83.45
2016-11-19T07:58:34.895Z,83.45
2016-11-19T07:59:17.374Z,84.3
2016-11-19T08:00:00.050Z,83.36
2016-11-19T08:00:43.244Z,83.16
2016-11-19T08:01:22.986Z,82.5
2016-11-19T08:02:04.133Z,82.88
2016-11-19T08:02:45.234Z,83.07
2016-11-19T08:03:26.291Z,82.4
2016-11-19T08:04:07.376Z,83.26
2016-11-19T08:04:48.206Z,83.16
2016-11-19T08:05:29.521Z,83.73
2016-11-19T08:06:10.709Z,82.97
2016-11-19T08:06:51.563Z,82.88
2016-11-19T08:07:32.510Z,82.31
2016-11-19T08:08:13.297Z,82.07
2016-11-19T08:08:54.152Z,82.31
2016-11-19T08:09:35.135Z,82.59
2016-11-19T08:10:16.008Z,82.82
2016-11-19T08:10:57.626Z,82.59
2016-11-19T08:11:41.008Z,82.97
2016-11-19T08:12:23.039Z,82.5
2016-11-19T08:13:03.904Z,83.07
2016-11-19T08:13:44.767Z,82.78
2016-11-19T08:14:25.739Z,82.4
2016-11-19T08:15:06.883Z,82.03
2016-11-19T08:15:47.757Z,82.54
2016-11-19T08:16:28.726Z,82.45
2016-11-19T08:17:11.420Z,83.16
2016-11-19T08:17:52.402Z,82.4
2016-11-19T08:18:33.371Z,82.54
2016-11-19T08:19:14.392Z,82.26
2016-11-19T08:19:55.208Z,82.54
2016-11-19T08:20:36.131Z,82.07
2016-11-19T08:21:17.110Z,83.01
2016-11-19T08:21:58.108Z,83.49
2016-11-19T08:22:39.125Z,83.36
2016-11-19T08:23:20.729Z,82.31
2016-11-19T08:24:01.439Z,81.97
2016-11-19T08:24:42.369Z,82.26
2016-11-19T08:25:23.293Z,81.78
2016-11-19T08:27:16.055Z,82.64
2016-11-19T08:27:57.259Z,81.97
2016-11-19T08:28:38.937Z,81.78
2016-11-19T08:29:19.828Z,81.78
2016-11-19T08:30:00.766Z,82.07
2016-11-19T08:30:41.820Z,81.87
2016-11-19T08:31:22.769Z,81.4
2016-11-19T08:32:03.666Z,82.07
2016-11-19T08:32:44.620Z,81.87
2016-11-19T08:33:25.380Z,81.87
2016-11-19T08:34:07.200Z,81.12
2016-11-19T08:34:46.832Z,82.07
2016-11-19T08:35:27.719Z,81.3
2016-11-19T08:36:08.648Z,80.64
2016-11-19T08:36:49.683Z,80.45
2016-11-19T08:37:30.827Z,80.26
2016-11-19T08:38:12.036Z,79.88
2016-11-19T08:38:52.954Z,79.41
2016-11-19T08:39:34.141Z,79.03
2016-11-19T08:40:16.715Z,78.74
2016-11-19T08:40:57.876Z,79.12
2016-11-19T08:41:38.782Z,78.64
2016-11-19T08:42:19.625Z,79.03
2016-11-19T08:43:00.715Z,78.27
2016-11-19T08:43:41.607Z,78.36
2016-11-19T08:44:22.621Z,78.3
2016-11-19T08:45:03.487Z,77.45
2016-11-19T08:45:44.424Z,76.97
2016-11-19T08:46:25.222Z,77.31
2016-11-19T08:47:06.778Z,77.26
2016-11-19T08:47:47.838Z,77.45
2016-11-19T08:48:29.722Z,76.78
2016-11-19T08:49:27.996Z,77.26
2016-11-19T08:50:09.032Z,77.22
2016-11-19T08:50:49.816Z,77.22
2016-11-19T08:51:31.641Z,77.45
2016-11-19T08:52:13.291Z,76.69
2016-11-19T08:52:55.171Z,77.17
2016-11-19T08:53:36.159Z,76.12
2016-11-19T08:54:17.270Z,76.03
2016-11-19T08:54:58.181Z,76.69
2016-11-19T08:55:38.943Z,76.03
2016-11-19T08:56:19.957Z,75.74
2016-11-19T08:57:00.882Z,76.03
2016-11-19T08:57:41.871Z,75.74
2016-11-19T08:58:24.034Z,75.55
2016-11-19T08:59:05.040Z,76.5
2016-11-19T08:59:45.873Z,75.84
2016-11-19T09:00:26.846Z,75.26